Valor — WDD8691 — position and weather

sailwx.info

Track history (hours):
 
Tides and Currents Weather Stations Pressure Air Temp Water Temp Dewpoint Dewpoint Depression Visibility Wind Speed Wind Dir Waves Ship Positions

Valor

Owner: Crowley Marine Services, Inc., Seattle, WA. More information available from US FCC via Universal Licensing System and Coast Guard Vessel Documentation Center.

Last reported at 2014-Oct-23 18:33 UTC. Time now 2014-Oct-23 18:37 UTC.
Position N 37°49' W 122°26'.

Length 8 m; draft 5.5 m.

Type: Tug. MMSI: 367301480.

Date/timePositionNaut miles runAvg speedWind from/ knotsBaromVisibWave heightAir tempDewpointWater temp
2014-Oct-23 18:33N 37°49' W 122°26'2 2.2
2014-Oct-23 17:34N 37°48' W 122°24'0 0.0
2014-Oct-23 16:33N 37°48' W 122°24'0 0.0
2014-Oct-23 15:34N 37°48' W 122°24'0 0.0
2014-Oct-23 14:33N 37°48' W 122°24'4 3.8
2014-Oct-23 13:33N 37°48' W 122°19'0 0.1
2014-Oct-23 12:33N 37°48' W 122°19'1 1.2
2014-Oct-23 11:33N 37°49' W 122°20'1 1.5
2014-Oct-23 10:33N 37°49' W 122°19'0 0.0
2014-Oct-23 09:34N 37°49' W 122°19'0 0.0
2014-Oct-23 08:33N 37°49' W 122°19'0 0.0
2014-Oct-23 07:34N 37°49' W 122°19'0 0.0
2014-Oct-23 06:34N 37°49' W 122°19'0 0.0
2014-Oct-23 05:34N 37°49' W 122°19'0 0.0
2014-Oct-23 04:33N 37°49' W 122°19'0 0.0
2014-Oct-23 03:34N 37°49' W 122°19'0 0.0
2014-Oct-23 02:34N 37°49' W 122°19'4 4.0
2014-Oct-23 01:34N 37°46' W 122°21'6 6.3
2014-Oct-23 00:34N 37°49' W 122°27'3 3.0
2014-Oct-22 23:34N 37°49' W 122°31'7 6.5
2014-Oct-22 22:33N 37°48' W 122°23'4 3.6
2014-Oct-22 21:34N 37°49' W 122°19'0 0.0
2014-Oct-22 20:34N 37°49' W 122°19'0 0.0
2014-Oct-22 19:34N 37°49' W 122°19'0 0.0
2014-Oct-22 18:34N 37°49' W 122°19'0 0.0
2014-Oct-22 17:34N 37°49' W 122°19'0 0.0
2014-Oct-22 16:33N 37°49' W 122°19'0 0.0
2014-Oct-22 15:33N 37°49' W 122°19'0 0.0
2014-Oct-22 14:34N 37°49' W 122°19'0 0.0
2014-Oct-22 13:33N 37°49' W 122°19'0 0.0
2014-Oct-22 12:34N 37°49' W 122°19'0 0.0
2014-Oct-22 11:33N 37°49' W 122°19'0 0.0
2014-Oct-22 10:33N 37°49' W 122°19'1 1.1
2014-Oct-22 09:33N 37°49' W 122°20'0 0.0
2014-Oct-22 08:34N 37°49' W 122°20'2 1.6
2014-Oct-22 07:34N 37°50' W 122°22'7 6.6
2014-Oct-22 06:34N 37°56' W 122°25'1 1.1
2014-Oct-22 05:34N 37°56' W 122°26'8 8.0
2014-Oct-22 04:33N 38°03' W 122°19'4 0.5
2014-Oct-21 21:15N 38°04' W 122°15'3 0.1
2014-Oct-20 22:06N 38°03' W 122°18'5 9.4
2014-Oct-20 21:32N 38°01' W 122°24'7 6.7
2014-Oct-20 20:34N 37°54' W 122°23'1 1.1
2014-Oct-20 19:34N 37°55' W 122°22'4 4.2
2014-Oct-20 18:33N 37°51' W 122°23'3 3.5
2014-Oct-20 17:33N 37°49' W 122°19'0 0.0
2014-Oct-20 16:33N 37°49' W 122°19'0 0.0
2014-Oct-20 15:34N 37°49' W 122°19'0 0.0
2014-Oct-20 14:33N 37°49' W 122°19'0 0.0
2014-Oct-20 13:33N 37°49' W 122°19'2 1.6
2014-Oct-20 12:33N 37°48' W 122°20'2 2.0
2014-Oct-20 11:34N 37°48' W 122°18'0 0.5
2014-Oct-20 10:34N 37°48' W 122°19'2 1.6
2014-Oct-20 09:33N 37°49' W 122°19'0 0.0
2014-Oct-20 08:33N 37°49' W 122°19'0 0.0
2014-Oct-20 07:34N 37°49' W 122°19'0 0.0
2014-Oct-20 06:34N 37°49' W 122°19'0 0.0
2014-Oct-20 05:34N 37°49' W 122°19'2 1.6
2014-Oct-20 04:33N 37°48' W 122°19'1 1.5
2014-Oct-20 03:34N 37°48' W 122°17'3 2.7
2014-Oct-20 02:34N 37°48' W 122°20'2 1.6
2014-Oct-20 01:33N 37°49' W 122°19'0 0.0
2014-Oct-20 00:33N 37°49' W 122°19'0 0.0
2014-Oct-19 23:34N 37°49' W 122°19'0 0.0
2014-Oct-19 22:33N 37°49' W 122°19'0 0.0
2014-Oct-19 21:34N 37°49' W 122°19'0 0.0
2014-Oct-19 20:33N 37°49' W 122°19'5 5.1
2014-Oct-19 19:33N 37°45' W 122°21'7 7.2
2014-Oct-19 18:33N 37°51' W 122°25'10 9.7
2014-Oct-19 17:33N 38°01' W 122°24'9 8.6
2014-Oct-19 16:30N 38°04' W 122°14'3 0.3
2014-Oct-19 05:23N 38°03' W 122°10'4 4.3
2014-Oct-19 04:33N 38°03' W 122°15'0 0.0
2014-Oct-19 03:33N 38°03' W 122°15'3 2.1
2014-Oct-19 02:20N 38°03' W 122°18'810.0
2014-Oct-19 01:34N 37°58' W 122°26'3 3.1
2014-Oct-19 00:33N 37°55' W 122°25'2 2.3
2014-Oct-18 23:33N 37°53' W 122°25'3 2.7
2014-Oct-18 22:33N 37°56' W 122°25'8 8.1
2014-Oct-18 21:32N 38°03' W 122°20'4 1.0
2014-Oct-18 17:22N 38°03' W 122°15'6 2.9
2014-Oct-18 15:27N 38°02' W 122°08'5 5.2
2014-Oct-18 14:33N 38°04' W 122°13'8 8.1
2014-Oct-18 13:33N 38°01' W 122°23'9 9.2
2014-Oct-18 12:33N 37°52' W 122°25'5 5.4
2014-Oct-18 11:33N 37°48' W 122°30'3 3.1
2014-Oct-18 10:33N 37°49' W 122°26'2 1.7
2014-Oct-18 09:33N 37°48' W 122°24'0 0.0
2014-Oct-18 08:34N 37°48' W 122°24'0 0.0
2014-Oct-18 07:33N 37°48' W 122°24'0 0.0
2014-Oct-18 06:33N 37°48' W 122°24'0 0.0
2014-Oct-18 05:33N 37°48' W 122°24'0 0.0
2014-Oct-18 04:33N 37°48' W 122°24'3 2.5
2014-Oct-18 03:33N 37°51' W 122°24'9 9.0
2014-Oct-18 02:34N 37°60' W 122°25'10 9.3
2014-Oct-18 01:30N 38°04' W 122°13'0 0.2
2014-Oct-18 00:34N 38°04' W 122°13'3 2.3
2014-Oct-17 23:24N 38°04' W 122°17'2 2.5
2014-Oct-17 22:34N 38°03' W 122°19'6 5.9
2014-Oct-17 21:33N 37°59' W 122°25'8 8.2
2014-Oct-17 20:33N 37°51' W 122°23'4 4.2
2014-Oct-17 19:33N 37°49' W 122°19'0 0.0
2014-Oct-17 18:34N 37°49' W 122°19'0 0.0
2014-Oct-17 17:33N 37°49' W 122°19'0 0.0
2014-Oct-17 16:33N 37°49' W 122°19'0 0.0
2014-Oct-17 15:33N 37°49' W 122°19'0 0.0
2014-Oct-17 14:34N 37°49' W 122°19'0 0.0
2014-Oct-17 13:34N 37°49' W 122°19'0 0.0
2014-Oct-17 12:34N 37°49' W 122°19'0 0.0
2014-Oct-17 11:34N 37°49' W 122°19'0 0.0
2014-Oct-17 10:34N 37°49' W 122°19'0 0.0
2014-Oct-17 09:33N 37°49' W 122°19'0 0.0
2014-Oct-17 08:34N 37°49' W 122°19'0 0.0
2014-Oct-17 07:34N 37°49' W 122°19'0 0.0
2014-Oct-17 06:33N 37°49' W 122°19'0 0.0
2014-Oct-17 05:34N 37°49' W 122°19'0 0.0
2014-Oct-17 04:34N 37°49' W 122°19'0 0.0
2014-Oct-17 03:34N 37°49' W 122°19'0 0.0
2014-Oct-17 02:33N 37°49' W 122°19'0 0.0
2014-Oct-17 01:33N 37°49' W 122°19'0 0.0
2014-Oct-17 00:34N 37°49' W 122°19'0 0.0
2014-Oct-16 23:33N 37°49' W 122°19'0 0.0
2014-Oct-16 22:34N 37°49' W 122°19'0 0.0
2014-Oct-16 21:33N 37°49' W 122°19'0 0.0
2014-Oct-16 20:33N 37°49' W 122°19'0 0.0
2014-Oct-16 19:33N 37°49' W 122°19'0 0.0
2014-Oct-16 18:33N 37°49' W 122°19'0 0.0
2014-Oct-16 17:34N 37°49' W 122°19'0 0.0
2014-Oct-16 16:34N 37°49' W 122°19'0 0.0
2014-Oct-16 15:33N 37°49' W 122°19'2 1.6
2014-Oct-16 14:33N 37°48' W 122°19'1 1.1
2014-Oct-16 13:34N 37°48' W 122°21'0 0.0
2014-Oct-16 12:33N 37°48' W 122°21'3 2.5
2014-Oct-16 11:33N 37°48' W 122°17'1 1.3
2014-Oct-16 10:34N 37°48' W 122°19'9 9.0
2014-Oct-16 09:33N 37°55' W 122°25'1 0.7
2014-Oct-16 08:34N 37°55' W 122°25'8 7.6
2014-Oct-16 07:33N 37°49' W 122°19'0 0.0
2014-Oct-16 06:34N 37°49' W 122°19'0 0.0
2014-Oct-16 05:34N 37°49' W 122°19'0 0.0
2014-Oct-16 04:34N 37°49' W 122°19'0 0.0
2014-Oct-16 03:33N 37°49' W 122°19'0 0.0
2014-Oct-16 02:34N 37°49' W 122°19'0 0.0
2014-Oct-16 01:34N 37°49' W 122°19'0 0.0
2014-Oct-16 00:34N 37°49' W 122°19'0 0.0
2014-Oct-15 23:34N 37°49' W 122°19'0 0.0
2014-Oct-15 22:34N 37°49' W 122°19'0 0.0
2014-Oct-15 21:34N 37°49' W 122°19'0 0.0
2014-Oct-15 20:34N 37°49' W 122°19'0 0.0
2014-Oct-15 19:34N 37°49' W 122°19'0 0.0
2014-Oct-15 18:33N 37°49' W 122°19'0 0.0
2014-Oct-15 17:34N 37°49' W 122°19'0 0.0
2014-Oct-15 16:34N 37°49' W 122°19'0 0.0
2014-Oct-15 15:33N 37°49' W 122°19'0 0.0
2014-Oct-15 14:34N 37°49' W 122°19'2 1.6
2014-Oct-15 13:34N 37°48' W 122°19'3 2.6
2014-Oct-15 12:34N 37°48' W 122°22'3 2.9
2014-Oct-15 11:34N 37°49' W 122°19'0 0.0
2014-Oct-15 10:34N 37°49' W 122°19'0 0.0
2014-Oct-15 09:34N 37°49' W 122°19'0 0.0
2014-Oct-15 08:34N 37°49' W 122°19'0 0.0
2014-Oct-15 07:34N 37°49' W 122°19'0 0.0
2014-Oct-15 06:34N 37°49' W 122°19'0 0.0
2014-Oct-15 05:33N 37°49' W 122°19'0 0.0
2014-Oct-15 04:34N 37°49' W 122°19'0 0.0
2014-Oct-15 03:34N 37°49' W 122°19'2 1.6
2014-Oct-15 02:34N 37°48' W 122°19'1 1.4
2014-Oct-15 01:34N 37°48' W 122°17'4 3.7
2014-Oct-15 00:33N 37°48' W 122°22'3 2.8
2014-Oct-14 23:34N 37°49' W 122°19'0 0.0
2014-Oct-14 22:33N 37°49' W 122°19'0 0.0
2014-Oct-14 21:34N 37°49' W 122°19'0 0.3
2014-Oct-14 20:34N 37°49' W 122°19'4 3.9
2014-Oct-14 19:33N 37°48' W 122°24'0 0.1
2014-Oct-14 18:34N 37°48' W 122°24'0 0.0
2014-Oct-14 17:34N 37°48' W 122°24'0 0.0
2014-Oct-14 16:34N 37°48' W 122°24'0 0.0
2014-Oct-14 15:34N 37°48' W 122°24'3 3.1
2014-Oct-14 14:33N 37°49' W 122°20'0 0.4
2014-Oct-14 13:34N 37°49' W 122°20'2 2.5
2014-Oct-14 12:34N 37°49' W 122°23'3 3.2
2014-Oct-14 11:34N 37°49' W 122°19'0 0.0
2014-Oct-14 10:34N 37°49' W 122°19'0 0.0
2014-Oct-14 09:34N 37°49' W 122°19'0 0.0
2014-Oct-14 08:33N 37°49' W 122°19'0 0.0
2014-Oct-14 07:34N 37°49' W 122°19'0 0.0
2014-Oct-14 06:33N 37°49' W 122°19'0 0.0
2014-Oct-14 05:34N 37°49' W 122°19'0 0.0
2014-Oct-14 04:34N 37°49' W 122°19'0 0.0
2014-Oct-14 03:34N 37°49' W 122°19'0 0.0
2014-Oct-14 02:34N 37°49' W 122°19'1 0.7
2014-Oct-14 01:33N 37°49' W 122°19'3 3.1
2014-Oct-14 00:33N 37°49' W 122°23'1 1.0
2014-Oct-13 23:34N 37°49' W 122°24'5 5.4
2014-Oct-13 22:33N 37°49' W 122°31'6 5.9
2014-Oct-13 21:34N 37°52' W 122°25'7 7.1
2014-Oct-13 20:33N 37°60' W 122°25'10 8.6
2014-Oct-13 19:23N 38°04' W 122°14'5 5.8
2014-Oct-13 18:34N 38°02' W 122°08'  
Track history (hours):
 
Tides and Currents Weather Stations Pressure Air Temp Water Temp Dewpoint Dewpoint Depression Visibility Wind Speed Wind Dir Waves Ship Positions

Valor

Owner: Crowley Marine Services, Inc., Seattle, WA. More information available from US FCC via Universal Licensing System and Coast Guard Vessel Documentation Center.

Last reported at 2014-Oct-23 18:33 UTC. Time now 2014-Oct-23 18:37 UTC.
Position N 37°49' W 122°26'.

Length 8 m; draft 5.5 m.

Type: Tug. MMSI: 367301480.

Date/timePositionNaut miles runAvg speedWind from/ knotsBaromVisibWave heightAir tempDewpointWater temp
2014-Oct-23 18:33N 37°49' W 122°26'2 2.2
2014-Oct-23 17:34N 37°48' W 122°24'0 0.0
2014-Oct-23 16:33N 37°48' W 122°24'0 0.0
2014-Oct-23 15:34N 37°48' W 122°24'0 0.0
2014-Oct-23 14:33N 37°48' W 122°24'4 3.8
2014-Oct-23 13:33N 37°48' W 122°19'0 0.1
2014-Oct-23 12:33N 37°48' W 122°19'1 1.2
2014-Oct-23 11:33N 37°49' W 122°20'1 1.5
2014-Oct-23 10:33N 37°49' W 122°19'0 0.0
2014-Oct-23 09:34N 37°49' W 122°19'0 0.0
2014-Oct-23 08:33N 37°49' W 122°19'0 0.0
2014-Oct-23 07:34N 37°49' W 122°19'0 0.0
2014-Oct-23 06:34N 37°49' W 122°19'0 0.0
2014-Oct-23 05:34N 37°49' W 122°19'0 0.0
2014-Oct-23 04:33N 37°49' W 122°19'0 0.0
2014-Oct-23 03:34N 37°49' W 122°19'0 0.0
2014-Oct-23 02:34N 37°49' W 122°19'4 4.0
2014-Oct-23 01:34N 37°46' W 122°21'6 6.3
2014-Oct-23 00:34N 37°49' W 122°27'3 3.0
2014-Oct-22 23:34N 37°49' W 122°31'7 6.5
2014-Oct-22 22:33N 37°48' W 122°23'4 3.6
2014-Oct-22 21:34N 37°49' W 122°19'0 0.0
2014-Oct-22 20:34N 37°49' W 122°19'0 0.0
2014-Oct-22 19:34N 37°49' W 122°19'0 0.0
2014-Oct-22 18:34N 37°49' W 122°19'0 0.0
2014-Oct-22 17:34N 37°49' W 122°19'0 0.0
2014-Oct-22 16:33N 37°49' W 122°19'0 0.0
2014-Oct-22 15:33N 37°49' W 122°19'0 0.0
2014-Oct-22 14:34N 37°49' W 122°19'0 0.0
2014-Oct-22 13:33N 37°49' W 122°19'0 0.0
2014-Oct-22 12:34N 37°49' W 122°19'0 0.0
2014-Oct-22 11:33N 37°49' W 122°19'0 0.0
2014-Oct-22 10:33N 37°49' W 122°19'1 1.1
2014-Oct-22 09:33N 37°49' W 122°20'0 0.0
2014-Oct-22 08:34N 37°49' W 122°20'2 1.6
2014-Oct-22 07:34N 37°50' W 122°22'7 6.6
2014-Oct-22 06:34N 37°56' W 122°25'1 1.1
2014-Oct-22 05:34N 37°56' W 122°26'8 8.0
2014-Oct-22 04:33N 38°03' W 122°19'4 0.5
2014-Oct-21 21:15N 38°04' W 122°15'3 0.1
2014-Oct-20 22:06N 38°03' W 122°18'5 9.4
2014-Oct-20 21:32N 38°01' W 122°24'7 6.7
2014-Oct-20 20:34N 37°54' W 122°23'1 1.1
2014-Oct-20 19:34N 37°55' W 122°22'4 4.2
2014-Oct-20 18:33N 37°51' W 122°23'3 3.5
2014-Oct-20 17:33N 37°49' W 122°19'0 0.0
2014-Oct-20 16:33N 37°49' W 122°19'0 0.0
2014-Oct-20 15:34N 37°49' W 122°19'0 0.0
2014-Oct-20 14:33N 37°49' W 122°19'0 0.0
2014-Oct-20 13:33N 37°49' W 122°19'2 1.6
2014-Oct-20 12:33N 37°48' W 122°20'2 2.0
2014-Oct-20 11:34N 37°48' W 122°18'0 0.5
2014-Oct-20 10:34N 37°48' W 122°19'2 1.6
2014-Oct-20 09:33N 37°49' W 122°19'0 0.0
2014-Oct-20 08:33N 37°49' W 122°19'0 0.0
2014-Oct-20 07:34N 37°49' W 122°19'0 0.0
2014-Oct-20 06:34N 37°49' W 122°19'0 0.0
2014-Oct-20 05:34N 37°49' W 122°19'2 1.6
2014-Oct-20 04:33N 37°48' W 122°19'1 1.5
2014-Oct-20 03:34N 37°48' W 122°17'3 2.7
2014-Oct-20 02:34N 37°48' W 122°20'2 1.6
2014-Oct-20 01:33N 37°49' W 122°19'0 0.0
2014-Oct-20 00:33N 37°49' W 122°19'0 0.0
2014-Oct-19 23:34N 37°49' W 122°19'0 0.0
2014-Oct-19 22:33N 37°49' W 122°19'0 0.0
2014-Oct-19 21:34N 37°49' W 122°19'0 0.0
2014-Oct-19 20:33N 37°49' W 122°19'5 5.1
2014-Oct-19 19:33N 37°45' W 122°21'7 7.2
2014-Oct-19 18:33N 37°51' W 122°25'10 9.7
2014-Oct-19 17:33N 38°01' W 122°24'9 8.6
2014-Oct-19 16:30N 38°04' W 122°14'3 0.3
2014-Oct-19 05:23N 38°03' W 122°10'4 4.3
2014-Oct-19 04:33N 38°03' W 122°15'0 0.0
2014-Oct-19 03:33N 38°03' W 122°15'3 2.1
2014-Oct-19 02:20N 38°03' W 122°18'810.0
2014-Oct-19 01:34N 37°58' W 122°26'3 3.1
2014-Oct-19 00:33N 37°55' W 122°25'2 2.3
2014-Oct-18 23:33N 37°53' W 122°25'3 2.7
2014-Oct-18 22:33N 37°56' W 122°25'8 8.1
2014-Oct-18 21:32N 38°03' W 122°20'4 1.0
2014-Oct-18 17:22N 38°03' W 122°15'6 2.9
2014-Oct-18 15:27N 38°02' W 122°08'5 5.2
2014-Oct-18 14:33N 38°04' W 122°13'8 8.1
2014-Oct-18 13:33N 38°01' W 122°23'9 9.2
2014-Oct-18 12:33N 37°52' W 122°25'5 5.4
2014-Oct-18 11:33N 37°48' W 122°30'3 3.1
2014-Oct-18 10:33N 37°49' W 122°26'2 1.7
2014-Oct-18 09:33N 37°48' W 122°24'0 0.0
2014-Oct-18 08:34N 37°48' W 122°24'0 0.0
2014-Oct-18 07:33N 37°48' W 122°24'0 0.0
2014-Oct-18 06:33N 37°48' W 122°24'0 0.0
2014-Oct-18 05:33N 37°48' W 122°24'0 0.0
2014-Oct-18 04:33N 37°48' W 122°24'3 2.5
2014-Oct-18 03:33N 37°51' W 122°24'9 9.0
2014-Oct-18 02:34N 37°60' W 122°25'10 9.3
2014-Oct-18 01:30N 38°04' W 122°13'0 0.2
2014-Oct-18 00:34N 38°04' W 122°13'3 2.3
2014-Oct-17 23:24N 38°04' W 122°17'2 2.5
2014-Oct-17 22:34N 38°03' W 122°19'6 5.9
2014-Oct-17 21:33N 37°59' W 122°25'8 8.2
2014-Oct-17 20:33N 37°51' W 122°23'4 4.2
2014-Oct-17 19:33N 37°49' W 122°19'0 0.0
2014-Oct-17 18:34N 37°49' W 122°19'0 0.0
2014-Oct-17 17:33N 37°49' W 122°19'0 0.0
2014-Oct-17 16:33N 37°49' W 122°19'0 0.0
2014-Oct-17 15:33N 37°49' W 122°19'0 0.0
2014-Oct-17 14:34N 37°49' W 122°19'0 0.0
2014-Oct-17 13:34N 37°49' W 122°19'0 0.0
2014-Oct-17 12:34N 37°49' W 122°19'0 0.0
2014-Oct-17 11:34N 37°49' W 122°19'0 0.0
2014-Oct-17 10:34N 37°49' W 122°19'0 0.0
2014-Oct-17 09:33N 37°49' W 122°19'0 0.0
2014-Oct-17 08:34N 37°49' W 122°19'0 0.0
2014-Oct-17 07:34N 37°49' W 122°19'0 0.0
2014-Oct-17 06:33N 37°49' W 122°19'0 0.0
2014-Oct-17 05:34N 37°49' W 122°19'0 0.0
2014-Oct-17 04:34N 37°49' W 122°19'0 0.0
2014-Oct-17 03:34N 37°49' W 122°19'0 0.0
2014-Oct-17 02:33N 37°49' W 122°19'0 0.0
2014-Oct-17 01:33N 37°49' W 122°19'0 0.0
2014-Oct-17 00:34N 37°49' W 122°19'0 0.0
2014-Oct-16 23:33N 37°49' W 122°19'0 0.0
2014-Oct-16 22:34N 37°49' W 122°19'0 0.0
2014-Oct-16 21:33N 37°49' W 122°19'0 0.0
2014-Oct-16 20:33N 37°49' W 122°19'0 0.0
2014-Oct-16 19:33N 37°49' W 122°19'0 0.0
2014-Oct-16 18:33N 37°49' W 122°19'0 0.0
2014-Oct-16 17:34N 37°49' W 122°19'0 0.0
2014-Oct-16 16:34N 37°49' W 122°19'0 0.0
2014-Oct-16 15:33N 37°49' W 122°19'2 1.6
2014-Oct-16 14:33N 37°48' W 122°19'1 1.1
2014-Oct-16 13:34N 37°48' W 122°21'0 0.0
2014-Oct-16 12:33N 37°48' W 122°21'3 2.5
2014-Oct-16 11:33N 37°48' W 122°17'1 1.3
2014-Oct-16 10:34N 37°48' W 122°19'9 9.0
2014-Oct-16 09:33N 37°55' W 122°25'1 0.7
2014-Oct-16 08:34N 37°55' W 122°25'8 7.6
2014-Oct-16 07:33N 37°49' W 122°19'0 0.0
2014-Oct-16 06:34N 37°49' W 122°19'0 0.0
2014-Oct-16 05:34N 37°49' W 122°19'0 0.0
2014-Oct-16 04:34N 37°49' W 122°19'0 0.0
2014-Oct-16 03:33N 37°49' W 122°19'0 0.0
2014-Oct-16 02:34N 37°49' W 122°19'0 0.0
2014-Oct-16 01:34N 37°49' W 122°19'0 0.0
2014-Oct-16 00:34N 37°49' W 122°19'0 0.0
2014-Oct-15 23:34N 37°49' W 122°19'0 0.0
2014-Oct-15 22:34N 37°49' W 122°19'0 0.0
2014-Oct-15 21:34N 37°49' W 122°19'0 0.0
2014-Oct-15 20:34N 37°49' W 122°19'0 0.0
2014-Oct-15 19:34N 37°49' W 122°19'0 0.0
2014-Oct-15 18:33N 37°49' W 122°19'0 0.0
2014-Oct-15 17:34N 37°49' W 122°19'0 0.0
2014-Oct-15 16:34N 37°49' W 122°19'0 0.0
2014-Oct-15 15:33N 37°49' W 122°19'0 0.0
2014-Oct-15 14:34N 37°49' W 122°19'2 1.6
2014-Oct-15 13:34N 37°48' W 122°19'3 2.6
2014-Oct-15 12:34N 37°48' W 122°22'3 2.9
2014-Oct-15 11:34N 37°49' W 122°19'0 0.0
2014-Oct-15 10:34N 37°49' W 122°19'0 0.0
2014-Oct-15 09:34N 37°49' W 122°19'0 0.0
2014-Oct-15 08:34N 37°49' W 122°19'0 0.0
2014-Oct-15 07:34N 37°49' W 122°19'0 0.0
2014-Oct-15 06:34N 37°49' W 122°19'0 0.0
2014-Oct-15 05:33N 37°49' W 122°19'0 0.0
2014-Oct-15 04:34N 37°49' W 122°19'0 0.0
2014-Oct-15 03:34N 37°49' W 122°19'2 1.6
2014-Oct-15 02:34N 37°48' W 122°19'1 1.4
2014-Oct-15 01:34N 37°48' W 122°17'4 3.7
2014-Oct-15 00:33N 37°48' W 122°22'3 2.8
2014-Oct-14 23:34N 37°49' W 122°19'0 0.0
2014-Oct-14 22:33N 37°49' W 122°19'0 0.0
2014-Oct-14 21:34N 37°49' W 122°19'0 0.3
2014-Oct-14 20:34N 37°49' W 122°19'4 3.9
2014-Oct-14 19:33N 37°48' W 122°24'0 0.1
2014-Oct-14 18:34N 37°48' W 122°24'0 0.0
2014-Oct-14 17:34N 37°48' W 122°24'0 0.0
2014-Oct-14 16:34N 37°48' W 122°24'0 0.0
2014-Oct-14 15:34N 37°48' W 122°24'3 3.1
2014-Oct-14 14:33N 37°49' W 122°20'0 0.4
2014-Oct-14 13:34N 37°49' W 122°20'2 2.5
2014-Oct-14 12:34N 37°49' W 122°23'3 3.2
2014-Oct-14 11:34N 37°49' W 122°19'0 0.0
2014-Oct-14 10:34N 37°49' W 122°19'0 0.0
2014-Oct-14 09:34N 37°49' W 122°19'0 0.0
2014-Oct-14 08:33N 37°49' W 122°19'0 0.0
2014-Oct-14 07:34N 37°49' W 122°19'0 0.0
2014-Oct-14 06:33N 37°49' W 122°19'0 0.0
2014-Oct-14 05:34N 37°49' W 122°19'0 0.0
2014-Oct-14 04:34N 37°49' W 122°19'0 0.0
2014-Oct-14 03:34N 37°49' W 122°19'0 0.0
2014-Oct-14 02:34N 37°49' W 122°19'1 0.7
2014-Oct-14 01:33N 37°49' W 122°19'3 3.1
2014-Oct-14 00:33N 37°49' W 122°23'1 1.0
2014-Oct-13 23:34N 37°49' W 122°24'5 5.4
2014-Oct-13 22:33N 37°49' W 122°31'6 5.9
2014-Oct-13 21:34N 37°52' W 122°25'7 7.1
2014-Oct-13 20:33N 37°60' W 122°25'10 8.6
2014-Oct-13 19:23N 38°04' W 122°14'5 5.8
2014-Oct-13 18:34N 38°02' W 122°08'  

Dump ship's entire track history